Time;durP1;ratioP1;P1;durP2;ratioP2;P2;SDS_P1;SDS_P2;PMS_P1;PMS_P2;Temp;Humidity;BMP_temperature;BMP_pressure;BME280_temperature;BME280_humidity;BME280_pressure;Samples;Min_cycle;Max_cycle;Signal;HPM_P1;HPM_P2
2021/04/23 00:00:57;;;;;;;12.43;5.72;;;;;;;8.16;47.49;102773.19;4884818;28;123829;-73
2021/04/23 00:03:38;;;;;;;12.63;5.38;;;;;;;8.13;47.57;102774.06;4902986;28;123978;-72
2021/04/23 00:06:13;;;;;;;15.70;5.80;;;;;;;8.11;47.57;102769.69;4893472;28;112816;-73
2021/04/23 00:08:43;;;;;;;14.13;5.22;;;;;;;8.11;47.28;102774.97;4892939;28;113809;-73
2021/04/23 00:11:11;;;;;;;12.43;5.97;;;;;;;8.09;47.84;102774.09;4905404;28;124372;-72
2021/04/23 00:13:39;;;;;;;14.95;5.47;;;;;;;8.06;47.66;102771.44;4894062;28;123153;-73
2021/04/23 00:16:08;;;;;;;15.30;5.70;;;;;;;8.05;47.92;102775.00;4911152;28;115368;-73
2021/04/23 00:18:36;;;;;;;16.45;5.45;;;;;;;8.02;47.42;102769.72;4892030;28;114342;-72
2021/04/23 00:21:03;;;;;;;14.15;5.50;;;;;;;8.00;47.86;102782.91;4898930;28;124191;-73
2021/04/23 00:23:32;;;;;;;10.55;5.53;;;;;;;7.96;47.91;102771.47;4902397;28;124135;-73
2021/04/23 00:26:00;;;;;;;11.27;5.30;;;;;;;7.93;47.95;102771.50;4890026;28;114048;-72
2021/04/23 00:28:27;;;;;;;15.40;5.60;;;;;;;7.91;47.79;102773.28;4889061;28;113527;-73
2021/04/23 00:30:55;;;;;;;12.63;5.28;;;;;;;7.89;47.84;102785.59;4887102;28;124761;-73
2021/04/23 00:33:24;;;;;;;14.15;5.20;;;;;;;7.85;47.60;102782.94;4887745;28;122829;-72
2021/04/23 00:35:50;;;;;;;15.98;5.55;;;;;;;7.81;47.66;102787.34;4892557;28;113748;-73
2021/04/23 00:38:21;;;;;;;12.07;5.07;;;;;;;7.77;47.69;102785.59;4889129;28;114346;-73
2021/04/23 00:40:52;;;;;;;11.07;4.97;;;;;;;7.73;47.75;102783.88;4908133;28;122755;-72
2021/04/23 00:43:21;;;;;;;14.02;5.03;;;;;;;7.71;47.97;102788.25;4903859;28;123858;-73
2021/04/23 00:45:49;;;;;;;16.80;5.82;;;;;;;7.68;47.75;102782.97;4903396;28;113933;-72
2021/04/23 00:48:17;;;;;;;14.52;5.70;;;;;;;7.66;48.11;102787.38;4886774;28;114384;-72
2021/04/23 00:50:48;;;;;;;11.73;5.40;;;;;;;7.63;47.94;102792.66;4904559;28;124257;-72
2021/04/23 00:53:26;;;;;;;17.20;5.82;;;;;;;7.59;48.02;102781.22;4906714;28;123882;-72
2021/04/23 00:55:55;;;;;;;12.88;5.43;;;;;;;7.56;47.90;102787.41;4882834;28;113595;-73
2021/04/23 00:58:25;;;;;;;11.57;5.10;;;;;;;7.53;47.75;102787.38;4905057;28;114091;-72
2021/04/23 01:00:55;;;;;;;15.43;5.93;;;;;;;7.51;47.93;102789.16;4903690;28;124725;-73
2021/04/23 01:03:23;;;;;;;18.90;5.97;;;;;;;7.49;47.90;102790.03;4905240;28;124554;-72
2021/04/23 01:05:51;;;;;;;14.15;5.68;;;;;;;7.47;47.97;102781.25;4899789;28;115398;-72
2021/04/23 01:08:19;;;;;;;8.90;5.22;;;;;;;7.44;48.23;102787.44;4905100;28;114547;-73
2021/04/23 01:10:45;;;;;;;16.95;6.45;;;;;;;7.40;48.06;102790.91;4896073;28;124990;-72
2021/04/23 01:13:12;;;;;;;12.57;5.68;;;;;;;7.37;48.04;102790.94;4910201;28;124287;-73
2021/04/23 01:15:39;;;;;;;12.68;5.93;;;;;;;7.33;48.08;102797.09;4903148;28;114033;-73
2021/04/23 01:18:05;;;;;;;13.10;6.30;;;;;;;7.30;48.11;102794.44;4904368;28;114351;-73
2021/04/23 01:20:32;;;;;;;15.10;6.30;;;;;;;7.26;48.24;102792.69;4906782;28;124150;-73
2021/04/23 01:22:59;;;;;;;15.43;5.68;;;;;;;7.22;48.42;102792.69;4910198;28;124592;-72
2021/04/23 01:25:25;;;;;;;13.45;5.85;;;;;;;7.20;48.42;102806.75;4892654;28;113701;-73
2021/04/23 01:27:52;;;;;;;13.88;6.22;;;;;;;7.17;48.64;102794.44;4890450;28;113994;-73
2021/04/23 01:30:22;;;;;;;15.15;5.70;;;;;;;7.15;48.43;102796.19;4900453;28;124360;-73
2021/04/23 01:32:49;;;;;;;12.27;5.78;;;;;;;7.12;48.37;102790.94;4911193;28;123583;-73
2021/04/23 01:35:24;;;;;;;12.45;5.70;;;;;;;7.10;48.57;102797.97;4914321;28;114117;-72
2021/04/23 01:37:50;;;;;;;15.45;5.88;;;;;;;7.07;48.34;102792.69;4896286;28;113429;-72
2021/04/23 01:40:19;;;;;;;11.90;6.57;;;;;;;7.04;48.69;102795.28;4903190;28;123992;-74
2021/04/23 01:42:45;;;;;;;14.18;5.57;;;;;;;7.01;48.50;102793.53;4899679;28;123353;-73
2021/04/23 01:45:14;;;;;;;12.70;5.78;;;;;;;7.00;48.62;102790.91;4897018;28;114004;-73
2021/04/23 01:47:41;;;;;;;15.73;5.70;;;;;;;6.96;48.41;102789.16;4890781;28;114791;-72
2021/04/23 01:50:10;;;;;;;14.43;5.30;;;;;;;6.93;48.65;102795.31;4881808;28;124031;-73
2021/04/23 01:52:37;;;;;;;13.13;5.63;;;;;;;6.91;48.82;102790.88;4900946;28;124477;-73
2021/04/23 01:55:06;;;;;;;13.82;6.20;;;;;;;6.88;48.64;102786.50;4900884;28;115120;-73
2021/04/23 01:57:33;;;;;;;17.45;5.68;;;;;;;6.86;48.58;102797.94;4907183;28;114329;-72
2021/04/23 02:00:00;;;;;;;13.40;5.43;;;;;;;6.83;48.82;102798.78;4906596;28;124894;-73
2021/04/23 02:02:26;;;;;;;10.88;5.38;;;;;;;6.81;48.66;102800.53;4905990;28;124559;-73
2021/04/23 02:04:53;;;;;;;12.77;5.60;;;;;;;6.75;48.30;102798.75;4900411;28;114731;-73
2021/04/23 02:07:20;;;;;;;17.40;5.70;;;;;;;6.72;48.28;102790.84;4906596;28;113733;-73
2021/04/23 02:09:46;;;;;;;11.57;5.45;;;;;;;6.70;48.53;102795.22;4901655;28;124952;-73
2021/04/23 02:12:13;;;;;;;9.77;5.00;;;;;;;6.65;48.49;102799.63;4873677;28;122892;-72
2021/04/23 02:14:40;;;;;;;11.80;5.63;;;;;;;6.62;48.55;102800.47;4902545;28;114914;-72
2021/04/23 02:17:07;;;;;;;13.75;5.45;;;;;;;6.59;48.54;102802.22;4899044;28;114578;-73
2021/04/23 02:19:35;;;;;;;10.88;5.22;;;;;;;6.56;48.44;102810.13;4904358;28;123568;-72
2021/04/23 02:22:01;;;;;;;14.80;5.50;;;;;;;6.54;48.62;102798.72;4903810;28;123530;-73
2021/04/23 02:24:28;;;;;;;13.55;5.43;;;;;;;6.50;48.58;102807.44;4908452;28;114084;-73
2021/04/23 02:26:55;;;;;;;12.07;5.20;;;;;;;6.45;48.25;102806.56;4904172;28;114404;-72
2021/04/23 02:29:21;;;;;;;10.80;5.35;;;;;;;6.40;48.55;102809.19;4899769;28;124906;-73
2021/04/23 02:31:51;;;;;;;13.43;5.75;;;;;;;6.35;48.51;102806.53;4906536;28;124372;-72
2021/04/23 02:34:21;;;;;;;10.07;4.72;;;;;;;6.32;48.72;102806.50;4888221;28;113705;-73
2021/04/23 02:36:48;;;;;;;13.38;5.50;;;;;;;6.27;48.58;102797.72;4903460;28;113177;-72
2021/04/23 02:39:19;;;;;;;17.13;5.57;;;;;;;6.23;48.71;102806.47;4906581;28;124400;-72
2021/04/23 02:41:49;;;;;;;11.98;5.00;;;;;;;6.21;48.97;102808.22;4881497;28;123906;-72
2021/04/23 02:44:16;;;;;;;16.95;6.45;;;;;;;6.17;48.81;102811.72;4903644;28;117557;-73
2021/04/23 02:46:44;;;;;;;13.77;5.53;;;;;;;6.15;48.94;102813.47;4891374;28;114850;-73
2021/04/23 02:49:11;;;;;;;15.80;6.63;;;;;;;6.12;48.61;102813.44;4900729;28;124434;-73
2021/04/23 02:51:42;;;;;;;16.88;6.63;;;;;;;6.09;48.98;102818.69;4903126;28;123160;-73
2021/04/23 02:54:10;;;;;;;14.38;6.07;;;;;;;6.06;48.81;102823.94;4901423;28;114183;-72
2021/04/23 02:56:37;;;;;;;13.77;5.85;;;;;;;6.01;48.95;102822.16;4908663;28;115301;-72
2021/04/23 02:59:05;;;;;;;16.48;5.60;;;;;;;5.97;49.13;102815.13;4903651;28;124014;-72
2021/04/23 03:01:36;;;;;;;14.70;5.70;;;;;;;5.92;49.04;102822.06;4888083;28;123580;-73
2021/04/23 03:04:04;;;;;;;13.52;6.13;;;;;;;5.91;49.21;102814.16;4901384;28;114445;-73
2021/04/23 03:06:31;;;;;;;15.52;5.97;;;;;;;5.89;49.13;102822.03;4900147;28;114316;-72
2021/04/23 03:08:58;;;;;;;14.85;6.10;;;;;;;5.86;49.26;102824.66;4908314;28;125015;-72
2021/04/23 03:11:25;;;;;;;17.20;6.03;;;;;;;5.85;49.45;102825.50;4902519;28;124232;-72
2021/04/23 03:13:55;;;;;;;15.77;6.03;;;;;;;5.83;49.34;102827.25;4903133;28;114040;-72
2021/04/23 03:16:24;;;;;;;16.08;6.20;;;;;;;5.79;49.34;102820.22;4881252;28;113176;-73
2021/04/23 03:18:52;;;;;;;15.68;6.10;;;;;;;5.77;49.29;102827.22;4890414;28;123451;-72
2021/04/23 03:21:28;;;;;;;12.07;5.85;;;;;;;5.75;49.56;102826.34;4902779;28;125285;-73
2021/04/23 03:23:56;;;;;;;14.95;6.07;;;;;;;5.74;49.33;102830.69;4897853;28;114358;-72
2021/04/23 03:26:24;;;;;;;15.52;5.65;;;;;;;5.74;49.39;102832.44;4897192;28;113510;-72
2021/04/23 03:28:51;;;;;;;17.35;6.28;;;;;;;5.72;49.36;102831.56;4892477;28;123540;-72
2021/04/23 03:31:20;;;;;;;13.70;6.05;;;;;;;5.71;49.65;102837.66;4901821;28;123940;-72
2021/04/23 03:33:47;;;;;;;13.60;6.13;;;;;;;5.70;49.67;102841.19;4901216;28;115258;-72
2021/04/23 03:36:14;;;;;;;16.60;6.20;;;;;;;5.69;49.59;102844.66;4900085;28;115393;-71
2021/04/23 03:38:44;;;;;;;14.68;6.45;;;;;;;5.65;49.79;102847.28;4885734;28;123390;-72
2021/04/23 03:41:18;;;;;;;14.68;6.35;;;;;;;5.63;49.64;102841.16;4905450;28;123761;-71
2021/04/23 03:43:45;;;;;;;14.32;6.13;;;;;;;5.61;49.67;102848.16;4901956;28;115407;-71
2021/04/23 03:46:12;;;;;;;14.65;6.43;;;;;;;5.60;49.74;102841.13;4899058;28;113444;-71
2021/04/23 03:48:40;;;;;;;16.33;6.35;;;;;;;5.60;49.57;102846.38;4898059;28;124897;-71
2021/04/23 03:51:07;;;;;;;12.65;5.82;;;;;;;5.59;49.65;102839.34;4888534;28;123694;-71
2021/04/23 03:53:35;;;;;;;16.98;5.90;;;;;;;5.58;49.55;102837.59;4899840;28;114862;-70
2021/04/23 03:56:04;;;;;;;15.98;6.60;;;;;;;5.56;49.69;102848.97;4901008;28;113953;-71
2021/04/23 03:58:31;;;;;;;13.38;5.90;;;;;;;5.55;49.66;102853.31;4866768;28;125888;-71
2021/04/23 04:01:02;;;;;;;12.02;6.07;;;;;;;5.50;49.88;102849.81;4901747;28;123757;-71
2021/04/23 04:03:30;;;;;;;16.63;6.18;;;;;;;5.47;49.53;102849.75;4901216;28;113911;-71
2021/04/23 04:05:57;;;;;;;16.33;6.30;;;;;;;5.43;49.90;102845.34;4901515;28;113531;-71
2021/04/23 04:08:24;;;;;;;15.40;6.25;;;;;;;5.41;49.96;102849.72;4903998;28;123981;-71
2021/04/23 04:10:51;;;;;;;16.35;6.25;;;;;;;5.40;49.84;102850.56;4882136;28;123420;-71
2021/04/23 04:13:18;;;;;;;12.98;6.57;;;;;;;5.37;49.43;102858.41;4901451;28;114119;-72
2021/04/23 04:15:45;;;;;;;13.75;6.65;;;;;;;5.34;50.00;102858.41;4903811;28;113769;-71
2021/04/23 04:18:12;;;;;;;17.80;6.65;;;;;;;5.34;50.14;102858.41;4881710;28;125050;-72
2021/04/23 04:20:43;;;;;;;16.10;6.72;;;;;;;5.31;49.97;102858.38;4885273;28;123254;-71
2021/04/23 04:23:14;;;;;;;16.23;6.85;;;;;;;5.32;50.15;102860.16;4895579;28;115469;-71
2021/04/23 04:25:47;;;;;;;14.63;6.85;;;;;;;5.30;50.22;102864.50;4902345;28;114121;-71
2021/04/23 04:28:14;;;;;;;17.65;6.88;;;;;;;5.29;50.56;102874.13;4899751;28;124269;-72
2021/04/23 04:30:41;;;;;;;19.35;6.85;;;;;;;5.28;50.54;102874.13;4889424;28;124220;-72
2021/04/23 04:33:10;;;;;;;16.65;6.82;;;;;;;5.28;50.68;102879.38;4893815;28;113532;-71
2021/04/23 04:35:37;;;;;;;18.20;7.65;;;;;;;5.28;50.61;102879.38;4905637;28;113863;-71
2021/04/23 04:38:07;;;;;;;18.42;7.32;;;;;;;5.27;50.77;102878.47;4875382;28;123716;-71
2021/04/23 04:40:35;;;;;;;16.33;7.28;;;;;;;5.28;50.85;102879.38;4908614;28;123462;-71
2021/04/23 04:43:07;;;;;;;14.98;7.15;;;;;;;5.28;50.96;102885.50;4889275;28;113979;-71
2021/04/23 04:45:35;;;;;;;15.75;7.05;;;;;;;5.30;50.80;102889.03;4908048;28;113444;-71
2021/04/23 04:48:02;;;;;;;17.13;7.15;;;;;;;5.31;50.90;102898.66;4892454;28;123759;-72
2021/04/23 04:50:34;;;;;;;16.42;6.10;;;;;;;5.32;51.01;102902.19;4902074;28;123625;-71
2021/04/23 04:53:03;;;;;;;14.13;6.22;;;;;;;5.32;50.79;102907.44;4891107;28;113836;-71
2021/04/23 04:55:33;;;;;;;17.65;6.72;;;;;;;5.32;50.71;102904.81;4871709;28;112929;-71
2021/04/23 04:58:01;;;;;;;12.65;6.57;;;;;;;5.31;50.63;102911.78;4901957;28;121891;-72
2021/04/23 05:00:29;;;;;;;17.27;6.47;;;;;;;5.32;50.72;102912.69;4902538;28;124856;-71
2021/04/23 05:02:57;;;;;;;19.92;7.32;;;;;;;5.32;50.84;102918.81;4879431;28;114007;-72
2021/04/23 05:05:24;;;;;;;21.08;7.63;;;;;;;5.32;50.90;102913.56;4905246;28;113963;-71
2021/04/23 05:07:51;;;;;;;17.50;6.70;;;;;;;5.33;51.03;102914.44;4910863;28;123859;-71
2021/04/23 05:10:18;;;;;;;17.88;7.38;;;;;;;5.35;51.03;102923.22;4904600;28;123959;-71
2021/04/23 05:12:44;;;;;;;18.38;6.97;;;;;;;5.37;51.21;102926.72;4905823;28;115565;-71
2021/04/23 05:15:12;;;;;;;17.98;7.50;;;;;;;5.38;51.28;102928.50;4889203;28;114241;-71
2021/04/23 05:17:38;;;;;;;18.88;7.43;;;;;;;5.41;51.21;102928.56;4883854;28;123853;-72
2021/04/23 05:20:11;;;;;;;13.85;7.00;;;;;;;5.44;51.36;102933.81;4900896;28;124947;-72
2021/04/23 05:22:38;;;;;;;16.17;6.65;;;;;;;5.49;51.35;102937.38;4890775;28;114268;-71
2021/04/23 05:25:07;;;;;;;17.08;7.80;;;;;;;5.51;51.62;102935.66;4904060;28;113967;-71
2021/04/23 05:27:34;;;;;;;18.35;7.70;;;;;;;5.56;51.49;102949.72;4903403;28;124021;-71
2021/04/23 05:30:09;;;;;;;17.83;7.80;;;;;;;5.61;51.75;102948.03;4889223;28;124194;-71
2021/04/23 05:32:37;;;;;;;18.02;8.18;;;;;;;5.68;51.80;102948.94;4895354;28;113285;-71
2021/04/23 05:35:06;;;;;;;17.15;7.35;;;;;;;5.74;52.11;102948.13;4878898;28;114209;-71
2021/04/23 05:37:33;;;;;;;18.30;7.57;;;;;;;5.82;52.29;102956.97;4902747;28;122897;-71
2021/04/23 05:39:59;;;;;;;22.05;8.10;;;;;;;5.90;52.33;102952.66;4883245;28;124140;-71
2021/04/23 05:42:27;;;;;;;18.08;8.55;;;;;;;5.97;52.60;102946.63;4902726;28;114662;-71
2021/04/23 05:44:55;;;;;;;21.48;8.60;;;;;;;6.08;52.66;102953.72;4900524;28;113845;-71
2021/04/23 05:47:24;;;;;;;19.63;8.98;;;;;;;6.18;52.73;102955.56;4901193;28;124328;-71
2021/04/23 05:49:50;;;;;;;20.02;9.32;;;;;;;6.29;52.70;102956.50;4909258;28;124979;-71
2021/04/23 05:52:17;;;;;;;23.33;9.65;;;;;;;6.37;52.81;102962.69;4902518;28;114752;-71
2021/04/23 05:54:44;;;;;;;19.40;9.38;;;;;;;6.47;53.13;102962.75;4889020;28;112882;-71
2021/04/23 05:57:11;;;;;;;24.67;10.57;;;;;;;6.54;52.92;102959.28;4900368;28;123980;-71
2021/04/23 05:59:37;;;;;;;29.55;10.68;;;;;;;6.65;53.20;102957.59;4901469;28;122910;-71
2021/04/23 06:02:04;;;;;;;17.95;9.55;;;;;;;6.76;53.25;102961.19;4900721;28;115178;-71
2021/04/23 06:04:31;;;;;;;23.52;10.10;;;;;;;6.87;53.28;102968.22;4899989;28;114810;-71
2021/04/23 06:06:57;;;;;;;27.23;10.48;;;;;;;6.98;53.33;102961.25;4885345;28;124681;-70
2021/04/23 06:09:24;;;;;;;24.27;10.73;;;;;;;7.08;53.32;102963.03;4889165;28;122700;-71
2021/04/23 06:11:51;;;;;;;24.02;11.00;;;;;;;7.18;53.56;102964.84;4885535;28;114393;-71
2021/04/23 06:14:17;;;;;;;26.75;10.80;;;;;;;7.32;53.77;102971.91;4901215;28;114799;-71
2021/04/23 06:16:44;;;;;;;23.42;10.50;;;;;;;7.43;53.60;102969.31;4904713;28;124516;-70
2021/04/23 06:19:11;;;;;;;17.85;11.00;;;;;;;7.56;53.71;102966.69;4902457;28;124044;-70
2021/04/23 06:21:38;;;;;;;27.83;11.85;;;;;;;7.69;53.92;102967.59;4903769;28;115183;-70
2021/04/23 06:24:05;;;;;;;30.27;11.48;;;;;;;7.82;53.96;102971.16;4908529;28;113882;-70
2021/04/23 06:26:31;;;;;;;24.48;11.45;;;;;;;7.92;54.00;102959.69;4885043;28;124267;-70
2021/04/23 06:28:58;;;;;;;22.00;10.52;;;;;;;8.05;54.05;102959.72;4898418;28;123553;-70
2021/04/23 06:31:25;;;;;;;23.77;11.43;;;;;;;8.17;54.00;102962.31;4903285;28;115098;-71
2021/04/23 06:33:52;;;;;;;22.05;10.65;;;;;;;8.27;54.05;102961.47;4900809;28;113838;-71
2021/04/23 06:36:20;;;;;;;29.52;11.85;;;;;;;8.39;54.05;102955.28;4904610;28;123919;-71
2021/04/23 06:38:48;;;;;;;29.38;12.02;;;;;;;8.51;53.99;102962.31;4904119;28;124447;-71
2021/04/23 06:41:16;;;;;;;29.33;11.82;;;;;;;8.62;54.36;102957.88;4887463;28;114895;-71
2021/04/23 06:43:43;;;;;;;28.98;11.10;;;;;;;8.75;54.30;102964.00;4906973;28;114488;-71
2021/04/23 06:46:12;;;;;;;26.05;10.65;;;;;;;8.90;54.50;102963.09;4905578;28;124192;-71
2021/04/23 06:48:46;;;;;;;20.65;11.15;;;;;;;9.04;54.39;102966.56;4898529;28;123819;-71
2021/04/23 06:51:13;;;;;;;23.90;11.20;;;;;;;9.20;54.14;102967.34;4904251;28;114685;-71
2021/04/23 06:53:40;;;;;;;17.92;8.82;;;;;;;9.32;53.93;102966.41;4907189;28;114704;-71
2021/04/23 06:56:07;;;;;;;20.80;9.40;;;;;;;9.43;54.05;102964.56;4892837;28;123808;-71
2021/04/23 06:58:33;;;;;;;17.52;7.85;;;;;;;9.54;53.51;102968.03;4908927;28;123704;-71
2021/04/23 07:01:00;;;;;;;19.65;7.97;;;;;;;9.67;53.80;102973.25;4863994;28;113166;-71
2021/04/23 07:03:27;;;;;;;18.10;7.47;;;;;;;9.82;53.88;102978.44;4904703;28;113981;-70
2021/04/23 07:05:55;;;;;;;22.70;7.80;;;;;;;9.99;53.57;102986.25;4896491;28;125377;-71
2021/04/23 07:08:21;;;;;;;17.17;7.50;;;;;;;10.17;53.75;102985.22;4882227;28;123241;-71
2021/04/23 07:10:48;;;;;;;17.10;6.55;;;;;;;10.35;53.17;102984.19;4884103;28;113557;-71
2021/04/23 07:13:16;;;;;;;15.07;5.50;;;;;;;10.52;52.79;102986.66;4893491;28;114056;-72
2021/04/23 07:15:42;;;;;;;18.75;5.88;;;;;;;10.66;52.67;102979.47;4896605;28;123587;-72
2021/04/23 07:18:09;;;;;;;12.73;5.15;;;;;;;10.82;51.74;102984.59;4908873;28;123621;-71
2021/04/23 07:20:41;;;;;;;12.75;4.97;;;;;;;10.97;51.39;102988.81;4908789;28;114206;-70
2021/04/23 07:23:10;;;;;;;10.88;4.28;;;;;;;11.13;50.79;102989.50;4926087;28;114294;-70
2021/04/23 07:25:36;;;;;;;14.55;5.07;;;;;;;11.26;50.53;102980.47;4898619;28;123519;-71
2021/04/23 07:28:04;;;;;;;11.32;4.03;;;;;;;11.37;50.16;102983.88;4919678;28;124629;-71
2021/04/23 07:30:34;;;;;;;12.57;3.85;;;;;;;11.49;49.62;102981.06;4885943;28;113388;-71
2021/04/23 07:33:04;;;;;;;9.80;4.00;;;;;;;11.61;49.21;102981.78;4903337;28;114872;-71
2021/04/23 07:35:32;;;;;;;13.07;3.97;;;;;;;11.68;49.20;102983.44;4894410;28;122979;-72
2021/04/23 07:37:59;;;;;;;12.52;3.60;;;;;;;11.73;47.94;102980.69;4905318;28;124727;-72
2021/04/23 07:40:27;;;;;;;10.70;2.92;;;;;;;11.74;46.88;102990.44;4917271;28;115478;-72
2021/04/23 07:42:54;;;;;;;9.77;2.65;;;;;;;11.71;46.90;102994.00;4897394;28;115197;-72
2021/04/23 07:45:21;;;;;;;14.07;3.85;;;;;;;11.70;46.75;102992.25;4904529;28;123870;-73
2021/04/23 07:47:47;;;;;;;10.50;3.22;;;;;;;11.69;46.77;102990.47;4898572;28;124123;-73
2021/04/23 07:50:17;;;;;;;12.93;3.50;;;;;;;11.68;46.67;102994.06;4894817;28;114093;-73
2021/04/23 07:52:45;;;;;;;10.35;3.55;;;;;;;11.73;47.39;102992.19;4911886;28;113834;-72
2021/04/23 07:55:12;;;;;;;10.68;3.55;;;;;;;11.81;47.34;102990.31;4905887;28;125133;-72
2021/04/23 07:57:39;;;;;;;12.02;3.63;;;;;;;11.94;47.48;102990.13;4890944;28;123976;-72
2021/04/23 08:00:09;;;;;;;8.88;3.50;;;;;;;12.10;47.25;102996.94;4894033;28;114014;-72
2021/04/23 08:02:41;;;;;;;;;;;;;;;12.26;47.17;102981.63;4910147;28;114031;-72
2021/04/23 08:05:10;;;;;;;11.18;3.13;;;;;;;12.42;46.72;102982.22;4909522;28;124214;-72
2021/04/23 08:07:57;;;;;;;13.55;3.22;;;;;;;12.57;46.72;102987.25;4915781;28;124113;-72
2021/04/23 08:10:24;;;;;;;11.23;3.22;;;;;;;12.70;46.45;102979.06;4911382;28;114282;-72
2021/04/23 08:12:52;;;;;;;10.93;3.55;;;;;;;12.85;45.70;102981.41;4911038;28;114451;-72
2021/04/23 08:15:20;;;;;;;9.18;3.22;;;;;;;12.98;45.46;102988.22;4906065;28;124623;-72
2021/04/23 08:17:47;;;;;;;11.38;3.33;;;;;;;13.11;44.65;102985.28;4897002;28;123545;-72
2021/04/23 08:20:15;;;;;;;13.82;3.30;;;;;;;13.18;44.16;102984.25;4915333;28;114604;-72
2021/04/23 08:22:43;;;;;;;9.27;3.42;;;;;;;13.22;43.62;102980.63;4914856;28;114082;-73
2021/04/23 08:25:10;;;;;;;14.60;3.60;;;;;;;13.27;43.39;102978.72;4881186;28;122985;-72
2021/04/23 08:27:37;;;;;;;11.25;3.70;;;;;;;13.34;43.51;102982.19;4896825;28;123331;-72
2021/04/23 08:30:07;;;;;;;13.48;3.50;;;;;;;13.40;43.34;102977.59;4914727;28;114891;-73
2021/04/23 08:32:36;;;;;;;12.55;3.70;;;;;;;13.48;43.43;102976.53;4913707;28;114799;-73
2021/04/23 08:35:05;;;;;;;10.80;3.85;;;;;;;13.57;43.85;102968.34;4914668;28;123885;-73
2021/04/23 08:37:32;;;;;;;11.65;4.00;;;;;;;13.64;43.95;102961.97;4912542;28;124000;-73
2021/04/23 08:39:58;;;;;;;11.88;3.70;;;;;;;13.71;43.70;102963.56;4914123;28;114012;-73
2021/04/23 08:42:25;;;;;;;9.32;3.35;;;;;;;13.78;43.79;102965.16;4897714;28;112823;-73
2021/04/23 08:44:51;;;;;;;13.32;3.70;;;;;;;13.86;43.91;102961.44;4914222;28;124101;-73
2021/04/23 08:47:19;;;;;;;9.35;3.80;;;;;;;13.92;43.65;102958.59;4907077;28;124083;-73
2021/04/23 08:49:46;;;;;;;11.27;4.22;;;;;;;13.98;43.54;102955.81;4915199;28;114325;-73
2021/04/23 08:52:12;;;;;;;13.80;4.43;;;;;;;14.08;43.00;102959.97;4897223;28;112900;-72
2021/04/23 08:54:39;;;;;;;6.47;3.45;;;;;;;14.16;43.15;102959.75;4896383;28;123809;-73
2021/04/23 08:57:06;;;;;;;13.32;4.28;;;;;;;14.24;43.44;102956.91;4896599;28;124024;-73
2021/04/23 08:59:33;;;;;;;13.77;3.88;;;;;;;14.31;43.48;102958.50;4897330;28;113258;-73
2021/04/23 09:02:01;;;;;;;9.77;3.35;;;;;;;14.36;43.02;102961.91;4915486;28;113453;-73
2021/04/23 09:04:28;;;;;;;11.18;3.60;;;;;;;14.34;42.67;102961.94;4901701;28;124034;-73
2021/04/23 09:07:06;;;;;;;9.57;3.42;;;;;;;14.36;42.43;102951.25;4908944;28;124401;-73
2021/04/23 09:09:42;;;;;;;9.98;3.60;;;;;;;14.41;43.02;102962.69;4909304;28;114668;-73
2021/04/23 09:12:20;;;;;;;11.27;3.90;;;;;;;14.47;42.55;102954.50;4910692;28;113546;-73
2021/04/23 09:14:53;;;;;;;12.57;3.90;;;;;;;14.53;41.95;102958.78;4915621;28;123825;-73
2021/04/23 09:17:22;;;;;;;11.45;4.00;;;;;;;14.59;42.06;102961.31;4892156;28;123689;-72
2021/04/23 09:19:50;;;;;;;8.38;3.70;;;;;;;14.59;41.53;102959.50;4922400;28;116000;-73
2021/04/23 09:22:16;;;;;;;9.38;3.50;;;;;;;14.63;42.18;102959.44;4905393;28;114820;-73
2021/04/23 09:25:11;;;;;;;16.00;4.40;;;;;;;14.69;42.18;102961.91;4914015;28;123880;-73
2021/04/23 09:27:42;;;;;;;14.60;3.93;;;;;;;14.74;41.80;102968.00;4902031;28;123240;-73
2021/04/23 09:30:11;;;;;;;11.65;4.10;;;;;;;14.74;40.86;102957.34;4905139;28;114342;-73
2021/04/23 09:32:40;;;;;;;10.07;4.40;;;;;;;14.72;41.34;102964.50;4914095;28;113901;-73
2021/04/23 09:35:18;;;;;;;13.13;4.15;;;;;;;14.74;41.46;102971.53;4947496;23;124559;-73
2021/04/23 09:37:55;;;;;;;11.05;3.90;;;;;;;14.79;41.54;102960.75;4916576;28;122674;-74
2021/04/23 09:40:24;;;;;;;;;;;;;;;14.83;41.94;102970.41;4915647;28;114011;-73
2021/04/23 09:42:55;;;;;;;11.73;4.10;;;;;;;14.91;41.35;102965.72;4895855;28;113655;-73
2021/04/23 09:45:24;;;;;;;9.55;3.92;;;;;;;14.94;41.32;102970.97;4923243;28;124658;-73
2021/04/23 09:47:55;;;;;;;8.98;4.18;;;;;;;14.95;40.53;102970.03;4915708;28;124317;-73
2021/04/23 09:50:29;;;;;;;11.40;4.05;;;;;;;14.96;40.48;102958.47;4906632;28;115239;-75
2021/04/23 09:52:58;;;;;;;10.32;3.58;;;;;;;15.01;40.23;102960.13;4942055;28;114443;-73
2021/04/23 09:55:27;;;;;;;10.32;3.67;;;;;;;15.07;40.50;102965.25;4942449;28;124105;-72
2021/04/23 09:58:03;;;;;;;11.30;4.07;;;;;;;15.11;40.09;102961.59;4918744;28;124037;-73
2021/04/23 10:00:32;;;;;;;11.77;4.10;;;;;;;15.13;40.39;102965.09;4934005;28;114837;-72
2021/04/23 10:03:01;;;;;;;11.00;3.58;;;;;;;15.15;39.91;102958.78;4907992;28;113427;-74
2021/04/23 10:05:39;;;;;;;9.18;3.80;;;;;;;15.17;40.37;102961.41;4932328;28;124815;-75
2021/04/23 10:08:26;;;;;;;12.63;3.70;;;;;;;15.23;40.54;102961.22;4932659;28;124052;-74
2021/04/23 10:10:55;;;;;;;12.48;3.90;;;;;;;15.35;40.00;102958.19;4914375;28;115415;-73
2021/04/23 10:13:30;;;;;;;7.97;3.63;;;;;;;15.44;40.58;102953.47;4903125;28;114496;-73
2021/04/23 10:15:57;;;;;;;12.70;3.53;;;;;;;15.49;40.69;102951.53;4911276;28;123833;-74
2021/04/23 10:18:24;;;;;;;10.95;3.75;;;;;;;15.55;40.12;102940.63;4912564;28;123243;-73
2021/04/23 10:20:52;;;;;;;10.23;4.00;;;;;;;15.61;40.35;102945.78;4932908;28;114924;-73
2021/04/23 10:23:22;;;;;;;11.13;3.63;;;;;;;15.66;40.45;102943.84;4915981;28;113740;-73
2021/04/23 10:25:50;;;;;;;12.20;3.92;;;;;;;15.70;40.21;102947.28;4930225;28;126286;-73
2021/04/23 10:28:23;;;;;;;9.68;3.47;;;;;;;15.70;39.15;102945.47;4926577;28;123408;-73
2021/04/23 10:30:52;;;;;;;9.75;3.58;;;;;;;15.67;38.46;102942.91;4931623;28;114455;-73
2021/04/23 10:33:21;;;;;;;9.10;3.40;;;;;;;15.60;38.32;102944.03;4928926;28;114015;-73
2021/04/23 10:35:51;;;;;;;10.25;3.83;;;;;;;15.54;38.46;102939.78;4904602;28;123516;-73
2021/04/23 10:38:20;;;;;;;14.70;3.65;;;;;;;15.53;37.99;102947.81;4931879;28;123792;-73
2021/04/23 10:40:58;;;;;;;9.75;3.65;;;;;;;15.54;38.65;102933.56;4915623;28;114945;-72
2021/04/23 10:43:31;;;;;;;11.40;3.42;;;;;;;15.56;39.07;102948.59;4915640;28;113089;-73
2021/04/23 10:45:58;;;;;;;14.57;3.88;;;;;;;15.63;39.43;102943.06;4932859;28;124252;-73
2021/04/23 10:48:36;;;;;;;9.90;3.45;;;;;;;15.69;38.35;102943.75;4915227;28;123733;-72
2021/04/23 10:51:09;;;;;;;8.57;3.60;;;;;;;15.76;38.18;102933.75;4899395;28;114514;-73
2021/04/23 10:53:42;;;;;;;12.65;4.00;;;;;;;15.80;37.57;102929.16;4914618;28;113978;-74
2021/04/23 10:56:34;;;;;;;9.05;3.42;;;;;;;15.81;37.85;102930.94;4914628;28;124792;-73
2021/04/23 10:59:22;;;;;;;14.23;3.70;;;;;;;15.81;37.86;102930.94;4931872;28;123092;-73
2021/04/23 11:01:51;;;;;;;9.68;3.53;;;;;;;15.85;38.53;102932.56;4927173;28;115244;-73
2021/04/23 11:04:19;;;;;;;10.88;3.70;;;;;;;15.91;38.73;102922.53;4915825;28;115444;-73
2021/04/23 11:07:03;;;;;;;8.88;3.10;;;;;;;16.04;38.44;102923.00;4932336;28;124538;-73
2021/04/23 11:09:29;;;;;;;12.95;3.92;;;;;;;16.13;37.92;102917.31;4914513;28;123256;-74
2021/04/23 11:12:08;;;;;;;8.60;3.50;;;;;;;16.19;38.41;102926.06;4932209;28;114130;-73
2021/04/23 11:14:36;;;;;;;9.88;3.88;;;;;;;16.27;38.26;102915.97;4932582;28;113002;-73
2021/04/23 11:17:18;;;;;;;8.07;3.65;;;;;;;16.28;38.06;102917.72;4909276;28;122751;-73
2021/04/23 11:19:49;;;;;;;8.85;3.38;;;;;;;16.33;38.25;102918.41;4914557;28;122787;-73
2021/04/23 11:22:20;;;;;;;7.20;3.67;;;;;;;16.38;38.01;102924.47;4929909;28;114345;-74